DK-0017 weather

Ejstrupholm
Central Jutland, Denmark

Public forecast

Using degrees Celsius for public forecast. Weather courtesy of forecast.io.

METAR (pilot weather report)

Closest report is Billund Airport, 15.6 nm (28.8 km) SSW. Retrieved 2019/05/25 21:20 UTC (0 seconds ago):

EKBI 252120Z AUTO 25010KT 9999 FEW042/// BKN150/// 09/07 Q1012

TAF (pilot weather forecast)

Closest forecast is Billund Airport, 15.6 nm (28.8 km) SSW. Retrieved 2019/05/25 18:18 UTC (3 hours ago):

TAF EKBI 251712Z 2518/2618 26012KT 9999 BKN020 TEMPO 2521/2603 BKN014 TEMPO 2603/2612 4000 -RA BR BKN010